createdAt,value
2019-04-06T00:00:49.434Z,74.55
2019-04-06T00:02:53.158Z,74.55
2019-04-06T00:04:56.936Z,74.61
2019-04-06T00:07:00.657Z,74.54
2019-04-06T00:09:06.398Z,74.77
2019-04-06T00:11:10.251Z,74.67
2019-04-06T00:13:13.973Z,74.71
2019-04-06T00:15:17.745Z,74.68
2019-04-06T00:17:21.466Z,74.65
2019-04-06T00:19:25.182Z,74.71
2019-04-06T00:21:28.892Z,74.70
2019-04-06T00:23:32.596Z,74.61
2019-04-06T00:25:44.297Z,74.58
2019-04-06T00:27:41.772Z,74.53
2019-04-06T00:29:45.583Z,74.52
2019-04-06T00:32:08.379Z,74.59
2019-04-06T00:34:12.237Z,74.55
2019-04-06T00:36:16.015Z,74.53
2019-04-06T00:38:19.743Z,74.55
2019-04-06T00:40:23.519Z,74.56
2019-04-06T00:42:27.318Z,74.61
2019-04-06T00:44:31.035Z,74.65
2019-04-06T00:46:34.761Z,74.64
2019-04-06T00:48:38.503Z,74.70
2019-04-06T00:50:42.286Z,74.77
2019-04-06T00:52:46.017Z,74.86
2019-04-06T00:54:49.702Z,75.00
2019-04-06T00:56:53.418Z,75.22
2019-04-06T00:58:57.167Z,75.35
2019-04-06T01:01:00.876Z,75.42
2019-04-06T01:03:04.688Z,75.45
2019-04-06T01:05:08.649Z,75.50
2019-04-06T01:07:12.367Z,75.56
2019-04-06T01:09:16.218Z,75.65
2019-04-06T01:11:20.001Z,75.75
2019-04-06T01:13:23.793Z,75.83
2019-04-06T01:15:27.504Z,75.88
2019-04-06T01:17:31.215Z,75.96
2019-04-06T01:19:34.926Z,76.03
2019-04-06T01:21:38.640Z,76.03
2019-04-06T01:23:42.357Z,75.96
2019-04-06T01:25:46.052Z,75.91
2019-04-06T01:27:49.773Z,76.00
2019-04-06T01:29:53.478Z,76.19
2019-04-06T01:31:57.207Z,76.28
2019-04-06T01:34:01.016Z,76.45
2019-04-06T01:36:04.861Z,76.38
2019-04-06T01:38:08.615Z,76.33
2019-04-06T01:40:12.478Z,76.21
2019-04-06T01:42:16.277Z,76.33
2019-04-06T01:44:20.010Z,76.32
2019-04-06T01:46:23.781Z,76.27
2019-04-06T01:48:27.490Z,76.22
2019-04-06T01:50:31.154Z,76.25
2019-04-06T01:52:34.873Z,76.20
2019-04-06T01:54:38.573Z,76.27
2019-04-06T01:56:42.286Z,76.40
2019-04-06T01:58:46.004Z,76.42
2019-04-06T02:01:53.905Z,76.40
2019-04-06T02:03:57.623Z,76.51
2019-04-06T02:06:01.533Z,76.58
2019-04-06T02:08:05.262Z,76.57
2019-04-06T02:10:09.232Z,76.53
2019-04-06T02:12:12.937Z,76.66
2019-04-06T02:14:16.660Z,76.65
2019-04-06T02:16:20.366Z,76.64
2019-04-06T02:18:24.078Z,76.83
2019-04-06T02:20:27.787Z,76.91
2019-04-06T02:22:31.495Z,77.02
2019-04-06T02:24:35.341Z,77.06
2019-04-06T02:26:38.991Z,77.04
2019-04-06T02:28:42.705Z,76.79
2019-04-06T02:31:06.573Z,76.62
2019-04-06T02:33:28.193Z,76.53
2019-04-06T02:36:03.215Z,76.58
2019-04-06T02:38:24.968Z,76.56
2019-04-06T02:40:39.880Z,76.56
2019-04-06T02:42:53.453Z,76.65
2019-04-06T02:44:57.245Z,76.81
2019-04-06T02:47:00.973Z,76.79
2019-04-06T02:49:04.810Z,76.89
2019-04-06T02:51:08.477Z,76.87
2019-04-06T02:53:12.259Z,76.94
2019-04-06T02:55:15.990Z,76.92
2019-04-06T02:57:19.867Z,77.11
2019-04-06T02:59:23.728Z,77.18
2019-04-06T03:01:27.586Z,77.12
2019-04-06T03:03:31.384Z,77.19
2019-04-06T03:05:35.387Z,77.21
2019-04-06T03:07:39.265Z,77.24
2019-04-06T03:09:43.047Z,77.44
2019-04-06T03:11:46.750Z,77.41
2019-04-06T03:13:50.643Z,77.50
2019-04-06T03:15:54.367Z,77.55
2019-04-06T03:17:58.057Z,77.70
2019-04-06T03:20:01.770Z,77.64
2019-04-06T03:22:05.551Z,77.50
2019-04-06T03:24:09.319Z,77.46
2019-04-06T03:26:13.064Z,77.50
2019-04-06T03:28:16.772Z,77.67
2019-04-06T03:30:20.560Z,77.75
2019-04-06T03:32:24.281Z,77.83
2019-04-06T03:34:28.139Z,77.92
2019-04-06T03:36:32.947Z,77.80
2019-04-06T03:38:36.631Z,77.74
2019-04-06T03:40:40.329Z,77.77
2019-04-06T03:42:44.041Z,77.64
2019-04-06T03:44:47.764Z,77.51
2019-04-06T03:46:52.503Z,77.41
2019-04-06T03:48:56.270Z,77.38
2019-04-06T03:50:59.925Z,77.39
2019-04-06T03:53:03.803Z,77.36
2019-04-06T03:55:08.460Z,77.43
2019-04-06T03:57:16.112Z,77.49
2019-04-06T03:59:17.591Z,77.46
2019-04-06T04:01:21.294Z,77.45
2019-04-06T04:03:25.135Z,77.36
2019-04-06T04:05:28.817Z,77.47
2019-04-06T04:07:32.613Z,77.49
2019-04-06T04:09:36.321Z,77.53
2019-04-06T04:11:40.110Z,77.51
2019-04-06T04:13:43.809Z,77.48
2019-04-06T04:15:47.610Z,77.54
2019-04-06T04:17:51.564Z,77.56
2019-04-06T04:19:55.309Z,77.62
2019-04-06T04:21:59.056Z,77.55
2019-04-06T04:24:03.002Z,77.54
2019-04-06T04:26:07.009Z,77.50
2019-04-06T04:28:10.715Z,77.46
2019-04-06T04:30:15.369Z,77.43
2019-04-06T04:32:19.506Z,77.37
2019-04-06T04:34:23.210Z,77.37
2019-04-06T04:36:26.944Z,77.37
2019-04-06T04:38:30.641Z,77.64
2019-04-06T04:40:34.518Z,77.83
2019-04-06T04:42:38.228Z,77.88
2019-04-06T04:44:41.941Z,77.80
2019-04-06T04:46:45.686Z,77.90
2019-04-06T04:48:49.515Z,77.91
2019-04-06T04:50:53.171Z,77.81
2019-04-06T04:52:56.881Z,77.92
2019-04-06T04:55:00.592Z,77.95
2019-04-06T04:57:04.320Z,77.96
2019-04-06T04:59:08.021Z,77.95
2019-04-06T05:01:11.800Z,77.99
2019-04-06T05:03:15.595Z,78.04
2019-04-06T05:05:19.380Z,78.06
2019-04-06T05:07:23.338Z,78.03
2019-04-06T05:09:27.048Z,77.93
2019-04-06T05:11:30.777Z,77.98
2019-04-06T05:13:34.509Z,77.96
2019-04-06T05:16:22.140Z,77.92
2019-04-06T05:18:25.860Z,77.75
2019-04-06T05:20:29.562Z,77.85
2019-04-06T05:22:33.275Z,77.78
2019-04-06T05:24:37.061Z,77.80
2019-04-06T05:26:40.775Z,77.90
2019-04-06T05:28:44.523Z,77.95
2019-04-06T05:30:48.204Z,77.90
2019-04-06T05:32:51.932Z,77.82
2019-04-06T05:34:58.030Z,77.68
2019-04-06T05:37:01.087Z,77.64
2019-04-06T05:39:06.448Z,77.72
2019-04-06T05:41:10.158Z,77.63
2019-04-06T05:43:13.876Z,77.59
2019-04-06T05:45:17.602Z,77.51
2019-04-06T05:47:21.462Z,77.46
2019-04-06T05:49:25.272Z,77.54
2019-04-06T05:51:28.975Z,77.67
2019-04-06T05:53:32.693Z,77.74
2019-04-06T05:55:36.416Z,77.65
2019-04-06T05:57:40.127Z,77.39
2019-04-06T05:59:43.850Z,77.25
2019-04-06T06:01:48.900Z,77.20
2019-04-06T06:03:53.129Z,77.15
2019-04-06T06:05:56.930Z,77.01
2019-04-06T06:08:00.638Z,76.84
2019-04-06T06:10:04.823Z,76.69
2019-04-06T06:12:10.410Z,76.67
2019-04-06T06:14:14.116Z,76.60
2019-04-06T06:16:17.863Z,76.58
2019-04-06T06:18:27.304Z,76.54
2019-04-06T06:20:27.029Z,76.37
2019-04-06T06:22:30.730Z,76.31
2019-04-06T06:24:34.825Z,76.11
2019-04-06T06:26:38.895Z,76.01
2019-04-06T06:28:42.793Z,75.97
2019-04-06T06:30:46.537Z,76.07
2019-04-06T06:32:50.288Z,76.01
2019-04-06T06:34:54.002Z,75.95
2019-04-06T06:36:57.801Z,75.79
2019-04-06T06:39:01.585Z,75.76
2019-04-06T06:41:05.447Z,75.80
2019-04-06T06:43:09.233Z,75.83
2019-04-06T06:45:13.087Z,75.88
2019-04-06T06:47:16.800Z,75.93
2019-04-06T06:49:20.559Z,75.77
2019-04-06T06:51:24.262Z,75.63
2019-04-06T06:53:28.137Z,75.55
2019-04-06T06:55:31.843Z,75.45
2019-04-06T06:57:35.551Z,75.31
2019-04-06T06:59:39.270Z,75.19
2019-04-06T07:01:42.991Z,74.98
2019-04-06T07:03:46.711Z,74.51
2019-04-06T07:05:50.807Z,73.81
2019-04-06T07:07:54.453Z,73.24
2019-04-06T07:10:05.186Z,72.58
2019-04-06T07:12:03.628Z,71.54
2019-04-06T07:14:07.525Z,70.35
2019-04-06T07:16:11.956Z,69.49
2019-04-06T07:18:15.678Z,66.20
2019-04-06T07:20:20.252Z,62.39
2019-04-06T07:22:23.970Z,59.91
2019-04-06T07:24:27.710Z,56.99
2019-04-06T07:26:31.594Z,54.56
2019-04-06T07:28:38.126Z,52.61
2019-04-06T07:30:40.799Z,50.78
2019-04-06T07:32:44.694Z,49.45
2019-04-06T07:34:48.411Z,47.76
2019-04-06T07:36:52.219Z,46.10
2019-04-06T07:38:56.999Z,44.23
2019-04-06T07:41:00.720Z,42.18
2019-04-06T07:43:04.453Z,41.96
2019-04-06T07:45:08.723Z,40.56
2019-04-06T07:47:12.460Z,39.07
2019-04-06T07:49:16.227Z,37.61
2019-04-06T07:51:19.968Z,36.46
2019-04-06T07:53:23.706Z,35.23
2019-04-06T07:55:27.527Z,34.05
2019-04-06T07:57:31.257Z,33.79
2019-04-06T07:59:36.262Z,32.48
2019-04-06T08:01:39.992Z,31.60
2019-04-06T08:03:43.727Z,30.90
2019-04-06T08:05:47.550Z,30.03
2019-04-06T08:07:51.304Z,29.45
2019-04-06T08:09:55.218Z,28.58
2019-04-06T08:11:59.064Z,27.91
2019-04-06T08:14:02.803Z,27.33
2019-04-06T08:16:06.685Z,26.36
2019-04-06T08:18:11.471Z,26.08
2019-04-06T08:20:16.358Z,25.54
2019-04-06T08:22:20.239Z,24.87
2019-04-06T08:24:23.917Z,24.58
2019-04-06T08:26:27.673Z,24.51
2019-04-06T08:28:31.405Z,24.28
2019-04-06T08:30:45.049Z,23.81
2019-04-06T08:32:40.846Z,23.46
2019-04-06T08:34:44.595Z,22.79
2019-04-06T08:36:48.399Z,22.19
2019-04-06T08:38:52.139Z,21.87
2019-04-06T08:40:55.924Z,21.66
2019-04-06T08:42:59.753Z,21.04
2019-04-06T08:45:03.688Z,21.07
2019-04-06T08:47:07.678Z,20.75
2019-04-06T08:49:11.463Z,20.25
2019-04-06T08:51:15.500Z,19.90
2019-04-06T08:53:19.165Z,19.80
2019-04-06T08:55:22.896Z,19.72
2019-04-06T08:57:26.650Z,19.46
2019-04-06T08:59:31.489Z,19.04
2019-04-06T09:01:35.662Z,18.82
2019-04-06T09:03:39.434Z,18.47
2019-04-06T09:05:43.395Z,18.71
2019-04-06T09:07:47.098Z,18.32
2019-04-06T09:09:50.825Z,18.08
2019-04-06T09:11:54.550Z,18.12
2019-04-06T09:13:58.279Z,17.81
2019-04-06T09:16:03.887Z,17.61
2019-04-06T09:18:07.636Z,17.25
2019-04-06T09:20:12.008Z,16.58
2019-04-06T09:22:15.789Z,16.59
2019-04-06T09:24:19.711Z,16.91
2019-04-06T09:26:23.456Z,17.02
2019-04-06T09:28:27.187Z,17.37
2019-04-06T09:30:30.919Z,17.61
2019-04-06T09:32:34.664Z,18.22
2019-04-06T09:34:38.498Z,19.47
2019-04-06T09:36:42.211Z,20.70
2019-04-06T09:38:46.177Z,21.78
2019-04-06T09:40:50.367Z,22.53
2019-04-06T09:42:54.323Z,22.54
2019-04-06T09:45:14.209Z,22.79
2019-04-06T09:47:43.064Z,22.81
2019-04-06T09:50:04.361Z,23.69
2019-04-06T09:52:17.618Z,23.83
2019-04-06T09:54:39.126Z,23.33
2019-04-06T09:56:58.860Z,23.02
2019-04-06T09:59:35.818Z,22.51
2019-04-06T10:01:42.682Z,22.62
2019-04-06T10:04:00.491Z,21.96
2019-04-06T10:06:32.561Z,21.33
2019-04-06T10:09:01.186Z,20.54
2019-04-06T10:11:24.089Z,19.91
2019-04-06T10:13:42.329Z,20.38
2019-04-06T10:15:58.318Z,20.01
2019-04-06T10:18:23.664Z,19.89
2019-04-06T10:20:51.055Z,20.28
2019-04-06T10:23:12.456Z,20.09
2019-04-06T10:25:28.763Z,20.19
2019-04-06T10:27:44.641Z,19.42
2019-04-06T10:29:56.466Z,20.02
2019-04-06T10:32:10.138Z,20.52
2019-04-06T10:34:45.239Z,21.64
2019-04-06T10:37:02.898Z,22.80
2019-04-06T10:39:18.578Z,23.87
2019-04-06T10:41:44.449Z,25.13
2019-04-06T10:44:07.512Z,25.66
2019-04-06T10:46:29.384Z,26.39
2019-04-06T10:48:50.859Z,26.96
2019-04-06T10:51:12.453Z,26.75
2019-04-06T10:53:23.451Z,27.39
2019-04-06T10:55:42.718Z,27.15
2019-04-06T10:58:03.897Z,27.45
2019-04-06T11:00:18.631Z,27.31
2019-04-06T11:02:40.209Z,27.76
2019-04-06T11:04:48.463Z,28.26
2019-04-06T11:07:05.465Z,29.45
2019-04-06T11:09:37.266Z,29.37
2019-04-06T11:11:56.194Z,29.10
2019-04-06T11:14:27.908Z,29.04
2019-04-06T11:16:56.642Z,28.61
2019-04-06T11:19:19.387Z,29.74
2019-04-06T11:21:57.134Z,28.80
2019-04-06T11:24:17.511Z,29.15
2019-04-06T11:26:41.493Z,28.29
2019-04-06T11:28:57.574Z,28.34
2019-04-06T11:31:15.667Z,28.73
2019-04-06T11:33:38.579Z,28.98
2019-04-06T11:35:58.688Z,29.44
2019-04-06T11:38:33.616Z,29.74
2019-04-06T11:41:02.338Z,29.67
2019-04-06T11:43:14.426Z,30.01
2019-04-06T11:45:35.699Z,30.02
2019-04-06T11:47:51.875Z,30.28
2019-04-06T11:50:17.747Z,30.59
2019-04-06T11:52:36.527Z,31.04
2019-04-06T11:54:51.885Z,31.28
2019-04-06T11:57:09.385Z,31.79
2019-04-06T11:59:41.507Z,31.59
2019-04-06T12:01:55.428Z,31.49
2019-04-06T12:04:20.607Z,31.13
2019-04-06T12:06:30.357Z,30.86
2019-04-06T12:08:59.201Z,31.29
2019-04-06T12:11:22.239Z,31.50
2019-04-06T12:13:45.001Z,31.33
2019-04-06T12:16:03.811Z,31.01
2019-04-06T12:18:29.824Z,30.25
2019-04-06T12:20:39.515Z,29.91
2019-04-06T12:22:51.079Z,29.54
2019-04-06T12:25:05.115Z,29.19
2019-04-06T12:27:34.198Z,28.84
2019-04-06T12:29:55.557Z,29.13
2019-04-06T12:32:18.558Z,28.85
2019-04-06T12:34:47.379Z,28.40
2019-04-06T12:37:10.119Z,28.63
2019-04-06T12:39:32.861Z,27.77
2019-04-06T12:41:52.750Z,28.72
2019-04-06T12:44:13.904Z,28.21
2019-04-06T12:46:42.655Z,28.00
2019-04-06T12:49:04.306Z,27.18
2019-04-06T12:51:34.534Z,26.75
2019-04-06T12:53:46.978Z,27.21
2019-04-06T12:56:08.096Z,27.74
2019-04-06T12:58:29.335Z,28.21
2019-04-06T13:01:01.088Z,28.79
2019-04-06T13:03:28.959Z,29.50
2019-04-06T13:05:57.748Z,29.93
2019-04-06T13:08:16.785Z,30.32
2019-04-06T13:10:36.292Z,30.21
2019-04-06T13:12:57.723Z,30.19
2019-04-06T13:15:16.693Z,30.40
2019-04-06T13:17:51.613Z,30.87
2019-04-06T13:20:10.510Z,31.00
2019-04-06T13:22:22.259Z,30.95
2019-04-06T13:24:43.996Z,30.08
2019-04-06T13:27:03.026Z,29.40
2019-04-06T13:29:31.314Z,29.34
2019-04-06T13:31:48.799Z,29.54
2019-04-06T13:34:29.505Z,28.37
2019-04-06T13:36:51.928Z,28.59
2019-04-06T13:39:26.697Z,28.58
2019-04-06T13:41:36.771Z,27.69
2019-04-06T13:43:59.798Z,28.02
2019-04-06T13:46:28.606Z,27.83
2019-04-06T13:49:00.437Z,26.84
2019-04-06T13:51:23.196Z,26.72
2019-04-06T13:53:37.826Z,27.45
2019-04-06T13:55:48.523Z,27.31
2019-04-06T13:57:59.999Z,27.33
2019-04-06T14:00:38.916Z,27.61
2019-04-06T14:02:51.284Z,28.34
2019-04-06T14:05:13.035Z,28.80
2019-04-06T14:07:32.447Z,29.51
2019-04-06T14:09:44.916Z,29.67
2019-04-06T14:12:09.941Z,29.81
2019-04-06T14:14:32.712Z,30.46
2019-04-06T14:16:58.509Z,30.62
2019-04-06T14:19:33.669Z,30.79
2019-04-06T14:22:02.182Z,30.29
2019-04-06T14:24:31.652Z,29.59
2019-04-06T14:27:03.342Z,29.18
2019-04-06T14:29:35.333Z,29.32
2019-04-06T14:31:50.646Z,29.13
2019-04-06T14:36:47.663Z,29.31
2019-04-06T14:39:13.392Z,29.46
2019-04-06T14:41:42.291Z,28.89
2019-04-06T14:44:11.287Z,29.40
2019-04-06T14:46:34.064Z,29.93
2019-04-06T14:48:55.761Z,30.34
2019-04-06T14:51:09.512Z,30.48
2019-04-06T14:53:18.216Z,30.60
2019-04-06T14:55:42.332Z,30.77
2019-04-06T14:58:11.461Z,30.69
2019-04-06T15:00:27.060Z,30.98
2019-04-06T15:02:48.519Z,30.81
2019-04-06T15:05:04.884Z,30.25
2019-04-06T15:07:26.344Z,30.27
2019-04-06T15:09:55.420Z,30.64
2019-04-06T15:12:05.928Z,30.94
2019-04-06T15:14:43.884Z,31.04
2019-04-06T15:17:03.048Z,31.17
2019-04-06T15:19:14.982Z,31.93
2019-04-06T15:21:37.686Z,32.20
2019-04-06T15:24:06.557Z,31.72
2019-04-06T15:26:29.532Z,31.73
2019-04-06T15:28:50.594Z,31.45
2019-04-06T15:31:20.135Z,31.81
2019-04-06T15:33:35.849Z,31.69
2019-04-06T15:35:57.272Z,31.43
2019-04-06T15:38:32.499Z,31.52
2019-04-06T15:41:04.117Z,31.39
2019-04-06T15:43:20.222Z,31.50
2019-04-06T15:45:31.763Z,31.48
2019-04-06T15:47:48.004Z,31.79
2019-04-06T15:50:17.040Z,31.58
2019-04-06T15:52:45.784Z,31.37
2019-04-06T15:55:02.762Z,31.21
2019-04-06T15:57:21.018Z,31.48
2019-04-06T15:59:40.878Z,31.57
2019-04-06T16:02:01.458Z,31.83
2019-04-06T16:04:21.762Z,32.04
2019-04-06T16:06:36.073Z,32.41
2019-04-06T16:09:04.851Z,32.65
2019-04-06T16:11:33.750Z,32.83
2019-04-06T16:13:45.899Z,33.15
2019-04-06T16:16:12.731Z,33.45
2019-04-06T16:18:33.981Z,33.57
2019-04-06T16:20:44.187Z,33.76
2019-04-06T16:22:55.681Z,34.29
2019-04-06T16:25:04.289Z,34.37
2019-04-06T16:27:28.678Z,34.36
2019-04-06T16:29:50.382Z,34.46
2019-04-06T16:32:19.638Z,34.25
2019-04-06T16:34:41.516Z,34.32
2019-04-06T16:37:02.896Z,34.51
2019-04-06T16:39:25.588Z,34.47
2019-04-06T16:41:47.038Z,34.25
2019-04-06T16:44:07.249Z,34.51
2019-04-06T16:46:22.135Z,34.47
2019-04-06T16:48:46.999Z,34.63
2019-04-06T16:51:06.604Z,34.58
2019-04-06T16:53:28.271Z,34.63
2019-04-06T16:55:41.808Z,34.74
2019-04-06T16:58:04.683Z,34.29
2019-04-06T17:00:19.841Z,34.30
2019-04-06T17:02:35.677Z,34.24
2019-04-06T17:05:01.151Z,34.30
2019-04-06T17:07:13.929Z,34.52
2019-04-06T17:09:26.591Z,34.67
2019-04-06T17:11:52.466Z,34.83
2019-04-06T17:14:16.257Z,34.78
2019-04-06T17:16:38.385Z,34.88
2019-04-06T17:18:54.401Z,34.84
2019-04-06T17:21:12.919Z,34.99
2019-04-06T17:23:24.531Z,35.09
2019-04-06T17:25:41.907Z,35.33
2019-04-06T17:27:57.150Z,35.36
2019-04-06T17:30:12.435Z,35.44
2019-04-06T17:32:33.944Z,35.46
2019-04-06T17:34:59.088Z,35.61
2019-04-06T17:37:11.073Z,35.83
2019-04-06T17:39:36.543Z,35.90
2019-04-06T17:42:17.934Z,35.99
2019-04-06T17:44:55.400Z,36.26
2019-04-06T17:47:18.188Z,36.38
2019-04-06T17:49:30.826Z,36.47
2019-04-06T17:51:50.010Z,36.63
2019-04-06T17:54:12.197Z,36.78
2019-04-06T17:56:35.174Z,36.91
2019-04-06T17:59:00.051Z,37.07
2019-04-06T18:01:22.941Z,37.23
2019-04-06T18:03:45.653Z,37.33
2019-04-06T18:06:08.407Z,37.44
2019-04-06T18:08:37.246Z,37.50
2019-04-06T18:11:09.985Z,37.69
2019-04-06T18:13:26.315Z,37.99
2019-04-06T18:15:30.077Z,38.05
2019-04-06T18:17:33.806Z,38.25
2019-04-06T18:19:37.623Z,38.08
2019-04-06T18:21:42.471Z,38.08
2019-04-06T18:23:46.189Z,38.05
2019-04-06T18:25:49.925Z,38.03
2019-04-06T18:27:53.661Z,37.96
2019-04-06T18:29:57.472Z,38.07
2019-04-06T18:32:13.143Z,38.14
2019-04-06T18:34:17.344Z,38.23
2019-04-06T18:36:23.499Z,38.19
2019-04-06T18:38:39.111Z,38.35
2019-04-06T18:40:42.988Z,38.44
2019-04-06T18:42:46.740Z,38.62
2019-04-06T18:44:51.982Z,38.72
2019-04-06T18:46:56.610Z,38.84
2019-04-06T18:49:00.402Z,38.88
2019-04-06T18:51:04.330Z,38.91
2019-04-06T18:53:09.147Z,38.99
2019-04-06T18:55:13.148Z,39.23
2019-04-06T18:57:17.286Z,39.30
2019-04-06T18:59:21.993Z,39.47
2019-04-06T19:01:25.874Z,39.65
2019-04-06T19:03:29.917Z,39.84
2019-04-06T19:05:33.692Z,40.11
2019-04-06T19:07:37.445Z,40.11
2019-04-06T19:09:41.195Z,40.16
2019-04-06T19:11:54.265Z,40.99
2019-04-06T19:13:50.943Z,41.38
2019-04-06T19:15:54.673Z,41.46
2019-04-06T19:17:58.844Z,41.04
2019-04-06T19:20:02.559Z,40.95
2019-04-06T19:22:06.452Z,41.10
2019-04-06T19:24:10.185Z,41.22
2019-04-06T19:26:14.050Z,41.50
2019-04-06T19:28:17.801Z,41.74
2019-04-06T19:30:21.978Z,42.17
2019-04-06T19:32:26.021Z,42.40
2019-04-06T19:34:29.891Z,42.53
2019-04-06T19:36:34.013Z,42.80
2019-04-06T19:38:38.146Z,42.94
2019-04-06T19:40:41.864Z,43.21
2019-04-06T19:42:46.411Z,43.43
2019-04-06T19:44:50.146Z,43.63
2019-04-06T19:46:53.937Z,43.86
2019-04-06T19:48:57.661Z,43.90
2019-04-06T19:51:01.380Z,44.01
2019-04-06T19:53:05.687Z,44.34
2019-04-06T19:55:10.096Z,44.44
2019-04-06T19:57:13.791Z,44.55
2019-04-06T19:59:17.512Z,44.64
2019-04-06T20:01:21.328Z,44.78
2019-04-06T20:03:34.028Z,44.86
2019-04-06T20:05:30.958Z,44.96
2019-04-06T20:07:34.774Z,44.92
2019-04-06T20:09:38.508Z,44.99
2019-04-06T20:11:42.249Z,45.22
2019-04-06T20:13:46.001Z,45.41
2019-04-06T20:15:49.798Z,45.66
2019-04-06T20:17:53.827Z,45.71
2019-04-06T20:19:57.781Z,45.92
2019-04-06T20:22:02.061Z,46.07
2019-04-06T20:24:06.164Z,46.21
2019-04-06T20:26:09.883Z,46.30
2019-04-06T20:28:13.618Z,46.37
2019-04-06T20:30:18.667Z,46.39
2019-04-06T20:32:22.447Z,46.43
2019-04-06T20:34:26.600Z,46.61
2019-04-06T20:36:30.425Z,46.68
2019-04-06T20:38:34.094Z,46.78
2019-04-06T20:40:39.202Z,46.89
2019-04-06T20:42:42.904Z,47.09
2019-04-06T20:44:47.211Z,47.29
2019-04-06T20:46:50.977Z,47.56
2019-04-06T20:48:54.693Z,47.64
2019-04-06T20:50:58.467Z,47.93
2019-04-06T20:53:02.407Z,48.02
2019-04-06T20:55:06.347Z,48.25
2019-04-06T20:57:10.041Z,48.31
2019-04-06T20:59:14.149Z,48.42
2019-04-06T21:01:18.181Z,48.28
2019-04-06T21:03:21.986Z,48.50
2019-04-06T21:05:25.795Z,48.66
2019-04-06T21:07:30.902Z,48.85
2019-04-06T21:09:35.726Z,49.17
2019-04-06T21:11:40.365Z,49.65
2019-04-06T21:13:44.150Z,49.76
2019-04-06T21:15:47.895Z,49.96
2019-04-06T21:17:51.798Z,50.03
2019-04-06T21:19:56.028Z,50.08
2019-04-06T21:21:59.883Z,49.94
2019-04-06T21:24:03.754Z,49.88
2019-04-06T21:26:07.394Z,49.91
2019-04-06T21:28:11.126Z,49.81
2019-04-06T21:30:15.918Z,49.83
2019-04-06T21:32:19.669Z,49.83
2019-04-06T21:34:23.735Z,49.93
2019-04-06T21:36:27.396Z,49.97
2019-04-06T21:38:31.134Z,50.09
2019-04-06T21:40:35.107Z,50.31
2019-04-06T21:42:39.366Z,50.06
2019-04-06T21:44:43.471Z,50.25
2019-04-06T21:46:47.283Z,50.31
2019-04-06T21:48:51.038Z,50.34
2019-04-06T21:50:54.913Z,50.46
2019-04-06T21:52:58.600Z,50.77
2019-04-06T21:55:02.442Z,50.84
2019-04-06T21:57:06.292Z,50.99
2019-04-06T21:59:10.033Z,51.11
2019-04-06T22:01:16.314Z,51.27
2019-04-06T22:03:20.648Z,51.70
2019-04-06T22:05:25.116Z,51.91
2019-04-06T22:07:28.890Z,52.39
2019-04-06T22:09:32.621Z,52.62
2019-04-06T22:11:37.102Z,52.50
2019-04-06T22:13:40.915Z,52.38
2019-04-06T22:15:45.060Z,52.42
2019-04-06T22:17:48.821Z,52.16
2019-04-06T22:19:52.691Z,52.05
2019-04-06T22:21:56.385Z,52.06
2019-04-06T22:24:01.252Z,52.16
2019-04-06T22:26:05.177Z,52.34
2019-04-06T22:28:08.887Z,52.24
2019-04-06T22:30:12.723Z,52.21
2019-04-06T22:32:16.513Z,52.30
2019-04-06T22:34:20.208Z,52.48
2019-04-06T22:36:24.323Z,52.49
2019-04-06T22:38:28.167Z,52.65
2019-04-06T22:40:32.485Z,52.54
2019-04-06T22:42:36.586Z,52.63
2019-04-06T22:44:40.343Z,52.63
2019-04-06T22:46:44.076Z,52.84
2019-04-06T22:48:48.069Z,53.15
2019-04-06T22:50:52.401Z,53.51
2019-04-06T22:52:56.193Z,53.73
2019-04-06T22:55:00.382Z,53.85
2019-04-06T22:57:04.369Z,54.10
2019-04-06T22:59:08.518Z,54.08
2019-04-06T23:01:13.977Z,54.19
2019-04-06T23:03:29.148Z,54.23
2019-04-06T23:05:38.050Z,54.01
2019-04-06T23:07:41.764Z,53.89
2019-04-06T23:09:46.563Z,53.71
2019-04-06T23:11:50.469Z,53.62
2019-04-06T23:13:54.145Z,53.50
2019-04-06T23:15:57.841Z,53.53
2019-04-06T23:18:01.557Z,53.55
2019-04-06T23:20:05.702Z,53.60
2019-04-06T23:22:09.409Z,53.72
2019-04-06T23:24:13.590Z,53.68
2019-04-06T23:26:17.319Z,53.74
2019-04-06T23:28:21.692Z,53.89
2019-04-06T23:30:26.442Z,54.00
2019-04-06T23:32:30.581Z,54.05
2019-04-06T23:34:35.166Z,54.07
2019-04-06T23:36:38.878Z,54.09
2019-04-06T23:38:43.046Z,54.04
2019-04-06T23:40:47.156Z,53.98
2019-04-06T23:42:51.292Z,53.80
2019-04-06T23:44:55.191Z,53.91
2019-04-06T23:46:58.910Z,54.00
2019-04-06T23:49:02.826Z,54.16
2019-04-06T23:51:06.529Z,54.64
2019-04-06T23:53:10.277Z,54.92
2019-04-06T23:55:14.128Z,55.24
2019-04-06T23:57:17.856Z,55.53
2019-04-06T23:59:22.223Z,55.61
